sensor_id;sensor_type;location;lat;lon;timestamp;P1;durP1;ratioP1;P2;durP2;ratioP2
80313;SDS011;69628;47.516;18.828;2023-07-02T00:00:20;11.20;;;5.20;;
80313;SDS011;69628;47.516;18.828;2023-07-02T00:01:21;7.78;;;5.18;;
80313;SDS011;69628;47.516;18.828;2023-07-02T00:02:22;8.95;;;4.82;;
80313;SDS011;69628;47.516;18.828;2023-07-02T00:03:22;9.23;;;5.45;;
80313;SDS011;69628;47.516;18.828;2023-07-02T00:04:22;10.70;;;5.43;;
80313;SDS011;69628;47.516;18.828;2023-07-02T00:05:23;8.98;;;4.72;;
80313;SDS011;69628;47.516;18.828;2023-07-02T00:06:23;8.75;;;5.03;;
80313;SDS011;69628;47.516;18.828;2023-07-02T00:07:23;10.80;;;5.72;;
80313;SDS011;69628;47.516;18.828;2023-07-02T00:08:25;8.90;;;5.10;;
80313;SDS011;69628;47.516;18.828;2023-07-02T00:09:26;13.95;;;5.50;;
80313;SDS011;69628;47.516;18.828;2023-07-02T00:10:26;9.73;;;4.97;;
80313;SDS011;69628;47.516;18.828;2023-07-02T00:11:26;10.48;;;5.22;;
80313;SDS011;69628;47.516;18.828;2023-07-02T00:12:28;11.13;;;5.55;;
80313;SDS011;69628;47.516;18.828;2023-07-02T00:13:29;7.72;;;4.70;;
80313;SDS011;69628;47.516;18.828;2023-07-02T00:14:29;8.00;;;4.57;;
80313;SDS011;69628;47.516;18.828;2023-07-02T00:15:29;7.53;;;4.88;;
80313;SDS011;69628;47.516;18.828;2023-07-02T00:16:30;8.43;;;5.03;;
80313;SDS011;69628;47.516;18.828;2023-07-02T00:17:30;12.98;;;6.43;;
80313;SDS011;69628;47.516;18.828;2023-07-02T00:18:30;13.18;;;5.43;;
80313;SDS011;69628;47.516;18.828;2023-07-02T00:19:35;10.25;;;5.65;;
80313;SDS011;69628;47.516;18.828;2023-07-02T00:20:35;10.13;;;5.00;;
80313;SDS011;69628;47.516;18.828;2023-07-02T00:21:37;14.88;;;5.57;;
80313;SDS011;69628;47.516;18.828;2023-07-02T00:22:39;11.57;;;5.22;;
80313;SDS011;69628;47.516;18.828;2023-07-02T00:23:41;8.10;;;4.65;;
80313;SDS011;69628;47.516;18.828;2023-07-02T00:24:42;10.80;;;5.05;;
80313;SDS011;69628;47.516;18.828;2023-07-02T00:25:42;9.63;;;5.22;;
80313;SDS011;69628;47.516;18.828;2023-07-02T00:26:43;10.40;;;5.57;;
80313;SDS011;69628;47.516;18.828;2023-07-02T00:27:43;8.10;;;5.20;;
80313;SDS011;69628;47.516;18.828;2023-07-02T00:28:44;9.95;;;5.28;;
80313;SDS011;69628;47.516;18.828;2023-07-02T00:29:44;14.02;;;5.90;;
80313;SDS011;69628;47.516;18.828;2023-07-02T00:30:44;12.50;;;5.75;;
80313;SDS011;69628;47.516;18.828;2023-07-02T00:31:45;8.60;;;4.90;;
80313;SDS011;69628;47.516;18.828;2023-07-02T00:32:45;10.80;;;5.00;;
80313;SDS011;69628;47.516;18.828;2023-07-02T00:33:45;9.40;;;5.10;;
80313;SDS011;69628;47.516;18.828;2023-07-02T00:34:46;11.32;;;4.95;;
80313;SDS011;69628;47.516;18.828;2023-07-02T00:35:46;8.15;;;4.88;;
80313;SDS011;69628;47.516;18.828;2023-07-02T00:36:47;11.00;;;5.10;;
80313;SDS011;69628;47.516;18.828;2023-07-02T00:37:48;9.38;;;5.18;;
80313;SDS011;69628;47.516;18.828;2023-07-02T00:38:49;13.48;;;5.35;;
80313;SDS011;69628;47.516;18.828;2023-07-02T00:39:50;8.93;;;5.47;;
80313;SDS011;69628;47.516;18.828;2023-07-02T00:40:50;8.40;;;4.65;;
80313;SDS011;69628;47.516;18.828;2023-07-02T00:41:50;9.68;;;5.30;;
80313;SDS011;69628;47.516;18.828;2023-07-02T00:42:51;8.30;;;4.68;;
80313;SDS011;69628;47.516;18.828;2023-07-02T00:43:51;8.35;;;5.03;;
80313;SDS011;69628;47.516;18.828;2023-07-02T00:44:54;16.15;;;5.35;;
80313;SDS011;69628;47.516;18.828;2023-07-02T00:45:56;10.23;;;5.22;;
80313;SDS011;69628;47.516;18.828;2023-07-02T00:46:57;9.15;;;5.00;;
80313;SDS011;69628;47.516;18.828;2023-07-02T00:47:58;13.48;;;5.07;;
80313;SDS011;69628;47.516;18.828;2023-07-02T00:48:58;9.65;;;5.65;;
80313;SDS011;69628;47.516;18.828;2023-07-02T00:50:00;10.18;;;5.22;;
80313;SDS011;69628;47.516;18.828;2023-07-02T00:51:01;7.82;;;4.80;;
80313;SDS011;69628;47.516;18.828;2023-07-02T00:52:02;8.65;;;5.05;;
80313;SDS011;69628;47.516;18.828;2023-07-02T00:53:02;9.13;;;4.93;;
80313;SDS011;69628;47.516;18.828;2023-07-02T00:54:03;9.77;;;4.60;;
80313;SDS011;69628;47.516;18.828;2023-07-02T00:55:03;7.15;;;4.35;;
80313;SDS011;69628;47.516;18.828;2023-07-02T00:56:04;10.88;;;5.30;;
80313;SDS011;69628;47.516;18.828;2023-07-02T00:57:04;8.45;;;4.57;;
80313;SDS011;69628;47.516;18.828;2023-07-02T00:58:05;10.05;;;5.22;;
80313;SDS011;69628;47.516;18.828;2023-07-02T00:59:08;9.23;;;5.50;;
80313;SDS011;69628;47.516;18.828;2023-07-02T01:00:08;9.70;;;5.03;;
80313;SDS011;69628;47.516;18.828;2023-07-02T01:01:09;11.10;;;5.38;;
80313;SDS011;69628;47.516;18.828;2023-07-02T01:02:09;9.88;;;5.07;;
80313;SDS011;69628;47.516;18.828;2023-07-02T01:03:11;11.15;;;5.25;;
80313;SDS011;69628;47.516;18.828;2023-07-02T01:04:11;13.98;;;5.13;;
80313;SDS011;69628;47.516;18.828;2023-07-02T01:05:15;9.50;;;4.72;;
80313;SDS011;69628;47.516;18.828;2023-07-02T01:06:16;9.77;;;4.90;;
80313;SDS011;69628;47.516;18.828;2023-07-02T01:07:16;8.13;;;4.60;;
80313;SDS011;69628;47.516;18.828;2023-07-02T01:08:17;10.90;;;5.55;;
80313;SDS011;69628;47.516;18.828;2023-07-02T01:09:17;9.55;;;4.93;;
80313;SDS011;69628;47.516;18.828;2023-07-02T01:10:18;10.68;;;5.65;;
80313;SDS011;69628;47.516;18.828;2023-07-02T01:11:18;6.70;;;3.97;;
80313;SDS011;69628;47.516;18.828;2023-07-02T01:12:20;9.50;;;5.18;;
80313;SDS011;69628;47.516;18.828;2023-07-02T01:13:21;9.82;;;4.80;;
80313;SDS011;69628;47.516;18.828;2023-07-02T01:14:25;8.90;;;4.13;;
80313;SDS011;69628;47.516;18.828;2023-07-02T01:15:27;9.93;;;4.63;;
80313;SDS011;69628;47.516;18.828;2023-07-02T01:16:27;8.25;;;4.55;;
80313;SDS011;69628;47.516;18.828;2023-07-02T01:17:31;9.80;;;5.32;;
80313;SDS011;69628;47.516;18.828;2023-07-02T01:18:39;8.02;;;4.45;;
80313;SDS011;69628;47.516;18.828;2023-07-02T01:19:44;8.40;;;4.50;;
80313;SDS011;69628;47.516;18.828;2023-07-02T01:20:54;8.18;;;4.65;;
80313;SDS011;69628;47.516;18.828;2023-07-02T01:21:54;9.82;;;5.43;;
80313;SDS011;69628;47.516;18.828;2023-07-02T01:22:55;11.15;;;5.18;;
80313;SDS011;69628;47.516;18.828;2023-07-02T01:23:55;11.48;;;5.10;;
80313;SDS011;69628;47.516;18.828;2023-07-02T01:24:56;11.40;;;4.93;;
80313;SDS011;69628;47.516;18.828;2023-07-02T01:25:56;9.75;;;5.00;;
80313;SDS011;69628;47.516;18.828;2023-07-02T01:26:59;8.85;;;4.82;;
80313;SDS011;69628;47.516;18.828;2023-07-02T01:28:01;7.78;;;5.10;;
80313;SDS011;69628;47.516;18.828;2023-07-02T01:29:14;9.10;;;5.00;;
80313;SDS011;69628;47.516;18.828;2023-07-02T01:30:18;9.55;;;5.32;;
80313;SDS011;69628;47.516;18.828;2023-07-02T01:31:19;8.13;;;4.57;;
80313;SDS011;69628;47.516;18.828;2023-07-02T01:32:19;9.05;;;5.05;;
80313;SDS011;69628;47.516;18.828;2023-07-02T01:33:20;9.88;;;4.80;;
80313;SDS011;69628;47.516;18.828;2023-07-02T01:34:20;9.27;;;4.90;;
80313;SDS011;69628;47.516;18.828;2023-07-02T01:35:21;9.18;;;4.93;;
80313;SDS011;69628;47.516;18.828;2023-07-02T01:36:21;10.27;;;5.18;;
80313;SDS011;69628;47.516;18.828;2023-07-02T01:37:22;10.73;;;5.32;;
80313;SDS011;69628;47.516;18.828;2023-07-02T01:38:22;11.77;;;5.20;;
80313;SDS011;69628;47.516;18.828;2023-07-02T01:39:22;8.60;;;5.18;;
80313;SDS011;69628;47.516;18.828;2023-07-02T01:40:23;9.95;;;5.13;;
80313;SDS011;69628;47.516;18.828;2023-07-02T01:41:23;7.93;;;4.68;;
80313;SDS011;69628;47.516;18.828;2023-07-02T01:42:24;8.55;;;5.60;;
80313;SDS011;69628;47.516;18.828;2023-07-02T01:43:24;10.48;;;4.82;;
80313;SDS011;69628;47.516;18.828;2023-07-02T01:44:24;8.70;;;4.85;;
80313;SDS011;69628;47.516;18.828;2023-07-02T01:45:25;10.55;;;4.60;;
80313;SDS011;69628;47.516;18.828;2023-07-02T01:46:25;12.30;;;5.45;;
80313;SDS011;69628;47.516;18.828;2023-07-02T01:47:25;8.88;;;4.82;;
80313;SDS011;69628;47.516;18.828;2023-07-02T01:48:26;11.10;;;5.05;;
80313;SDS011;69628;47.516;18.828;2023-07-02T01:49:26;7.75;;;4.55;;
80313;SDS011;69628;47.516;18.828;2023-07-02T01:50:27;9.05;;;4.85;;
80313;SDS011;69628;47.516;18.828;2023-07-02T01:51:27;10.07;;;4.88;;
80313;SDS011;69628;47.516;18.828;2023-07-02T01:52:27;8.30;;;4.40;;
80313;SDS011;69628;47.516;18.828;2023-07-02T01:53:29;8.30;;;4.72;;
80313;SDS011;69628;47.516;18.828;2023-07-02T01:54:30;10.38;;;4.88;;
80313;SDS011;69628;47.516;18.828;2023-07-02T01:55:34;10.93;;;5.03;;
80313;SDS011;69628;47.516;18.828;2023-07-02T01:56:34;12.27;;;5.13;;
80313;SDS011;69628;47.516;18.828;2023-07-02T01:57:35;10.40;;;4.63;;
80313;SDS011;69628;47.516;18.828;2023-07-02T01:58:35;7.60;;;4.75;;
80313;SDS011;69628;47.516;18.828;2023-07-02T01:59:35;10.48;;;5.13;;
80313;SDS011;69628;47.516;18.828;2023-07-02T02:00:36;8.73;;;4.88;;
80313;SDS011;69628;47.516;18.828;2023-07-02T02:01:36;8.18;;;5.20;;
80313;SDS011;69628;47.516;18.828;2023-07-02T02:02:40;9.35;;;5.15;;
80313;SDS011;69628;47.516;18.828;2023-07-02T02:03:42;8.50;;;4.75;;
80313;SDS011;69628;47.516;18.828;2023-07-02T02:04:42;8.73;;;4.65;;
80313;SDS011;69628;47.516;18.828;2023-07-02T02:05:43;13.27;;;5.20;;
80313;SDS011;69628;47.516;18.828;2023-07-02T02:06:44;7.30;;;4.05;;
80313;SDS011;69628;47.516;18.828;2023-07-02T02:07:44;8.43;;;4.50;;
80313;SDS011;69628;47.516;18.828;2023-07-02T02:08:44;10.32;;;4.68;;
80313;SDS011;69628;47.516;18.828;2023-07-02T02:09:45;7.80;;;4.63;;
80313;SDS011;69628;47.516;18.828;2023-07-02T02:10:45;6.95;;;4.30;;
80313;SDS011;69628;47.516;18.828;2023-07-02T02:11:48;7.38;;;4.43;;
80313;SDS011;69628;47.516;18.828;2023-07-02T02:12:50;8.95;;;4.63;;
80313;SDS011;69628;47.516;18.828;2023-07-02T02:13:50;8.82;;;4.53;;
80313;SDS011;69628;47.516;18.828;2023-07-02T02:14:51;14.73;;;5.28;;
80313;SDS011;69628;47.516;18.828;2023-07-02T02:15:51;8.35;;;4.72;;
80313;SDS011;69628;47.516;18.828;2023-07-02T02:16:52;10.07;;;4.70;;
80313;SDS011;69628;47.516;18.828;2023-07-02T02:17:52;10.55;;;5.38;;
80313;SDS011;69628;47.516;18.828;2023-07-02T02:18:53;6.97;;;4.22;;
80313;SDS011;69628;47.516;18.828;2023-07-02T02:19:53;8.88;;;4.50;;
80313;SDS011;69628;47.516;18.828;2023-07-02T02:20:54;8.43;;;4.53;;
80313;SDS011;69628;47.516;18.828;2023-07-02T02:21:54;7.15;;;4.53;;
80313;SDS011;69628;47.516;18.828;2023-07-02T02:22:55;10.15;;;5.18;;
80313;SDS011;69628;47.516;18.828;2023-07-02T02:23:55;9.02;;;4.55;;
80313;SDS011;69628;47.516;18.828;2023-07-02T02:24:55;10.15;;;5.10;;
80313;SDS011;69628;47.516;18.828;2023-07-02T02:25:56;10.02;;;4.95;;
80313;SDS011;69628;47.516;18.828;2023-07-02T02:26:56;9.02;;;4.75;;
80313;SDS011;69628;47.516;18.828;2023-07-02T02:27:57;8.25;;;4.93;;
80313;SDS011;69628;47.516;18.828;2023-07-02T02:28:57;10.38;;;5.15;;
80313;SDS011;69628;47.516;18.828;2023-07-02T02:29:58;10.45;;;5.38;;
80313;SDS011;69628;47.516;18.828;2023-07-02T02:30:58;9.10;;;4.55;;
80313;SDS011;69628;47.516;18.828;2023-07-02T02:31:58;9.57;;;5.00;;
80313;SDS011;69628;47.516;18.828;2023-07-02T02:32:59;8.43;;;4.30;;
80313;SDS011;69628;47.516;18.828;2023-07-02T02:33:59;8.15;;;4.43;;
80313;SDS011;69628;47.516;18.828;2023-07-02T02:34:59;16.02;;;4.85;;
80313;SDS011;69628;47.516;18.828;2023-07-02T02:36:00;9.00;;;4.22;;
80313;SDS011;69628;47.516;18.828;2023-07-02T02:37:00;7.85;;;4.18;;
80313;SDS011;69628;47.516;18.828;2023-07-02T02:38:02;8.73;;;4.88;;
80313;SDS011;69628;47.516;18.828;2023-07-02T02:39:03;8.88;;;4.97;;
80313;SDS011;69628;47.516;18.828;2023-07-02T02:40:03;8.75;;;4.43;;
80313;SDS011;69628;47.516;18.828;2023-07-02T02:41:05;9.68;;;4.80;;
80313;SDS011;69628;47.516;18.828;2023-07-02T02:42:08;8.25;;;4.57;;
80313;SDS011;69628;47.516;18.828;2023-07-02T02:43:08;8.60;;;4.03;;
80313;SDS011;69628;47.516;18.828;2023-07-02T02:44:09;10.48;;;5.03;;
80313;SDS011;69628;47.516;18.828;2023-07-02T02:45:09;6.75;;;3.50;;
80313;SDS011;69628;47.516;18.828;2023-07-02T02:46:10;9.98;;;3.85;;
80313;SDS011;69628;47.516;18.828;2023-07-02T02:47:11;9.40;;;4.63;;
80313;SDS011;69628;47.516;18.828;2023-07-02T02:48:11;7.35;;;4.18;;
80313;SDS011;69628;47.516;18.828;2023-07-02T02:49:12;9.88;;;4.35;;
80313;SDS011;69628;47.516;18.828;2023-07-02T02:50:12;10.50;;;4.00;;
80313;SDS011;69628;47.516;18.828;2023-07-02T02:51:13;10.32;;;4.60;;
80313;SDS011;69628;47.516;18.828;2023-07-02T02:52:13;14.00;;;4.38;;
80313;SDS011;69628;47.516;18.828;2023-07-02T02:53:15;7.90;;;4.25;;
80313;SDS011;69628;47.516;18.828;2023-07-02T02:54:15;8.27;;;4.65;;
80313;SDS011;69628;47.516;18.828;2023-07-02T02:55:16;16.88;;;4.57;;
80313;SDS011;69628;47.516;18.828;2023-07-02T02:56:16;10.95;;;4.60;;
80313;SDS011;69628;47.516;18.828;2023-07-02T02:57:17;6.55;;;3.67;;
80313;SDS011;69628;47.516;18.828;2023-07-02T02:58:17;7.40;;;4.13;;
80313;SDS011;69628;47.516;18.828;2023-07-02T02:59:17;6.38;;;3.67;;
80313;SDS011;69628;47.516;18.828;2023-07-02T03:00:18;7.20;;;3.75;;
80313;SDS011;69628;47.516;18.828;2023-07-02T03:01:18;8.05;;;4.25;;
80313;SDS011;69628;47.516;18.828;2023-07-02T03:02:18;8.27;;;4.22;;
80313;SDS011;69628;47.516;18.828;2023-07-02T03:03:19;10.77;;;3.97;;
80313;SDS011;69628;47.516;18.828;2023-07-02T03:04:20;7.18;;;3.85;;
80313;SDS011;69628;47.516;18.828;2023-07-02T03:05:23;9.95;;;3.88;;
80313;SDS011;69628;47.516;18.828;2023-07-02T03:06:24;6.45;;;3.90;;
80313;SDS011;69628;47.516;18.828;2023-07-02T03:07:24;6.57;;;3.75;;
80313;SDS011;69628;47.516;18.828;2023-07-02T03:08:25;7.10;;;3.63;;
80313;SDS011;69628;47.516;18.828;2023-07-02T03:09:25;7.18;;;3.80;;
80313;SDS011;69628;47.516;18.828;2023-07-02T03:10:25;8.82;;;3.70;;
80313;SDS011;69628;47.516;18.828;2023-07-02T03:11:26;5.35;;;3.42;;
80313;SDS011;69628;47.516;18.828;2023-07-02T03:12:26;7.13;;;3.78;;
80313;SDS011;69628;47.516;18.828;2023-07-02T03:13:27;6.72;;;3.63;;
80313;SDS011;69628;47.516;18.828;2023-07-02T03:14:27;8.10;;;3.92;;
80313;SDS011;69628;47.516;18.828;2023-07-02T03:15:28;14.90;;;3.85;;
80313;SDS011;69628;47.516;18.828;2023-07-02T03:16:28;7.65;;;3.60;;
80313;SDS011;69628;47.516;18.828;2023-07-02T03:17:28;8.15;;;3.55;;
80313;SDS011;69628;47.516;18.828;2023-07-02T03:18:29;5.97;;;3.50;;
80313;SDS011;69628;47.516;18.828;2023-07-02T03:19:29;8.43;;;3.33;;
80313;SDS011;69628;47.516;18.828;2023-07-02T03:20:29;8.25;;;3.70;;
80313;SDS011;69628;47.516;18.828;2023-07-02T03:21:30;7.82;;;3.65;;
80313;SDS011;69628;47.516;18.828;2023-07-02T03:22:30;7.95;;;3.88;;
80313;SDS011;69628;47.516;18.828;2023-07-02T03:23:30;9.00;;;3.53;;
80313;SDS011;69628;47.516;18.828;2023-07-02T03:24:31;8.07;;;3.33;;
80313;SDS011;69628;47.516;18.828;2023-07-02T03:25:31;5.10;;;3.53;;
80313;SDS011;69628;47.516;18.828;2023-07-02T03:26:32;5.40;;;3.53;;
80313;SDS011;69628;47.516;18.828;2023-07-02T03:27:32;6.03;;;3.80;;
80313;SDS011;69628;47.516;18.828;2023-07-02T03:28:32;6.25;;;3.65;;
80313;SDS011;69628;47.516;18.828;2023-07-02T03:29:35;6.18;;;3.50;;
80313;SDS011;69628;47.516;18.828;2023-07-02T03:30:35;5.25;;;3.25;;
80313;SDS011;69628;47.516;18.828;2023-07-02T03:31:35;9.27;;;3.95;;
80313;SDS011;69628;47.516;18.828;2023-07-02T03:32:36;7.43;;;3.92;;
80313;SDS011;69628;47.516;18.828;2023-07-02T03:33:36;5.90;;;3.20;;
80313;SDS011;69628;47.516;18.828;2023-07-02T03:34:36;5.93;;;3.40;;
80313;SDS011;69628;47.516;18.828;2023-07-02T03:35:37;5.00;;;2.92;;
80313;SDS011;69628;47.516;18.828;2023-07-02T03:36:37;13.40;;;3.72;;
80313;SDS011;69628;47.516;18.828;2023-07-02T03:37:38;5.47;;;3.15;;
80313;SDS011;69628;47.516;18.828;2023-07-02T03:38:41;6.70;;;3.15;;
80313;SDS011;69628;47.516;18.828;2023-07-02T03:39:42;10.07;;;3.38;;
80313;SDS011;69628;47.516;18.828;2023-07-02T03:40:42;8.70;;;3.78;;
80313;SDS011;69628;47.516;18.828;2023-07-02T03:41:43;5.20;;;2.92;;
80313;SDS011;69628;47.516;18.828;2023-07-02T03:42:44;6.32;;;3.10;;
80313;SDS011;69628;47.516;18.828;2023-07-02T03:43:44;4.65;;;2.92;;
80313;SDS011;69628;47.516;18.828;2023-07-02T03:44:44;8.23;;;3.53;;
80313;SDS011;69628;47.516;18.828;2023-07-02T03:45:45;7.15;;;4.05;;
80313;SDS011;69628;47.516;18.828;2023-07-02T03:46:45;7.45;;;3.67;;
80313;SDS011;69628;47.516;18.828;2023-07-02T03:47:46;9.25;;;3.60;;
80313;SDS011;69628;47.516;18.828;2023-07-02T03:48:46;5.57;;;3.33;;
80313;SDS011;69628;47.516;18.828;2023-07-02T03:49:47;6.13;;;3.10;;
80313;SDS011;69628;47.516;18.828;2023-07-02T03:50:47;5.68;;;3.72;;
80313;SDS011;69628;47.516;18.828;2023-07-02T03:51:48;8.25;;;3.08;;
80313;SDS011;69628;47.516;18.828;2023-07-02T03:52:48;6.15;;;3.47;;
80313;SDS011;69628;47.516;18.828;2023-07-02T03:53:49;8.82;;;3.45;;
80313;SDS011;69628;47.516;18.828;2023-07-02T03:54:49;6.55;;;3.72;;
80313;SDS011;69628;47.516;18.828;2023-07-02T03:55:49;6.32;;;3.13;;
80313;SDS011;69628;47.516;18.828;2023-07-02T03:56:50;6.32;;;3.42;;
80313;SDS011;69628;47.516;18.828;2023-07-02T03:57:50;7.40;;;3.40;;
80313;SDS011;69628;47.516;18.828;2023-07-02T03:58:50;6.18;;;3.38;;
80313;SDS011;69628;47.516;18.828;2023-07-02T03:59:51;7.20;;;3.05;;
80313;SDS011;69628;47.516;18.828;2023-07-02T04:00:51;5.40;;;3.55;;
80313;SDS011;69628;47.516;18.828;2023-07-02T04:01:51;6.68;;;3.55;;
80313;SDS011;69628;47.516;18.828;2023-07-02T04:02:52;6.25;;;3.55;;
80313;SDS011;69628;47.516;18.828;2023-07-02T04:03:53;6.82;;;3.30;;
80313;SDS011;69628;47.516;18.828;2023-07-02T04:04:53;4.25;;;3.10;;
80313;SDS011;69628;47.516;18.828;2023-07-02T04:05:54;6.97;;;3.40;;
80313;SDS011;69628;47.516;18.828;2023-07-02T04:06:54;7.32;;;3.65;;
80313;SDS011;69628;47.516;18.828;2023-07-02T04:07:55;5.03;;;2.90;;
80313;SDS011;69628;47.516;18.828;2023-07-02T04:08:58;6.53;;;3.40;;
80313;SDS011;69628;47.516;18.828;2023-07-02T04:09:58;6.55;;;3.22;;
80313;SDS011;69628;47.516;18.828;2023-07-02T04:10:59;6.50;;;3.88;;
80313;SDS011;69628;47.516;18.828;2023-07-02T04:12:00;8.07;;;3.25;;
80313;SDS011;69628;47.516;18.828;2023-07-02T04:13:01;7.03;;;4.22;;
80313;SDS011;69628;47.516;18.828;2023-07-02T04:14:01;5.40;;;3.20;;
80313;SDS011;69628;47.516;18.828;2023-07-02T04:15:02;6.18;;;3.17;;
80313;SDS011;69628;47.516;18.828;2023-07-02T04:16:03;7.50;;;3.45;;
80313;SDS011;69628;47.516;18.828;2023-07-02T04:17:04;5.60;;;2.45;;
80313;SDS011;69628;47.516;18.828;2023-07-02T04:18:05;5.40;;;2.88;;
80313;SDS011;69628;47.516;18.828;2023-07-02T04:19:05;7.13;;;3.28;;
80313;SDS011;69628;47.516;18.828;2023-07-02T04:20:06;6.32;;;2.78;;
80313;SDS011;69628;47.516;18.828;2023-07-02T04:21:07;8.00;;;3.80;;
80313;SDS011;69628;47.516;18.828;2023-07-02T04:22:08;5.53;;;3.15;;
80313;SDS011;69628;47.516;18.828;2023-07-02T04:23:08;6.18;;;3.78;;
80313;SDS011;69628;47.516;18.828;2023-07-02T04:24:08;4.78;;;3.15;;
80313;SDS011;69628;47.516;18.828;2023-07-02T04:25:09;6.82;;;3.38;;
80313;SDS011;69628;47.516;18.828;2023-07-02T04:26:09;5.55;;;3.58;;
80313;SDS011;69628;47.516;18.828;2023-07-02T04:27:10;4.95;;;3.30;;
80313;SDS011;69628;47.516;18.828;2023-07-02T04:28:11;6.28;;;3.00;;
80313;SDS011;69628;47.516;18.828;2023-07-02T04:29:11;6.57;;;3.38;;
80313;SDS011;69628;47.516;18.828;2023-07-02T04:30:11;6.00;;;2.70;;
80313;SDS011;69628;47.516;18.828;2023-07-02T04:31:12;7.95;;;3.03;;
80313;SDS011;69628;47.516;18.828;2023-07-02T04:32:13;4.93;;;2.80;;
80313;SDS011;69628;47.516;18.828;2023-07-02T04:33:13;5.95;;;3.00;;
80313;SDS011;69628;47.516;18.828;2023-07-02T04:34:23;12.52;;;3.45;;
80313;SDS011;69628;47.516;18.828;2023-07-02T04:35:23;5.50;;;3.50;;
80313;SDS011;69628;47.516;18.828;2023-07-02T04:36:23;4.90;;;2.75;;
80313;SDS011;69628;47.516;18.828;2023-07-02T04:37:24;12.57;;;3.45;;
80313;SDS011;69628;47.516;18.828;2023-07-02T04:38:24;6.20;;;3.45;;
80313;SDS011;69628;47.516;18.828;2023-07-02T04:39:24;6.65;;;3.50;;
80313;SDS011;69628;47.516;18.828;2023-07-02T04:40:25;5.20;;;2.90;;
80313;SDS011;69628;47.516;18.828;2023-07-02T04:41:26;6.88;;;3.22;;
80313;SDS011;69628;47.516;18.828;2023-07-02T04:42:27;10.50;;;3.03;;
80313;SDS011;69628;47.516;18.828;2023-07-02T04:43:27;5.68;;;3.58;;
80313;SDS011;69628;47.516;18.828;2023-07-02T04:44:31;5.25;;;2.80;;
80313;SDS011;69628;47.516;18.828;2023-07-02T04:45:32;5.43;;;3.22;;
80313;SDS011;69628;47.516;18.828;2023-07-02T04:46:36;6.25;;;3.20;;
80313;SDS011;69628;47.516;18.828;2023-07-02T04:47:36;7.68;;;3.20;;
80313;SDS011;69628;47.516;18.828;2023-07-02T04:48:37;6.18;;;2.80;;
80313;SDS011;69628;47.516;18.828;2023-07-02T04:49:38;4.38;;;2.88;;
80313;SDS011;69628;47.516;18.828;2023-07-02T04:50:38;5.50;;;2.75;;
80313;SDS011;69628;47.516;18.828;2023-07-02T04:51:39;5.75;;;3.38;;
80313;SDS011;69628;47.516;18.828;2023-07-02T04:52:39;4.82;;;2.95;;
80313;SDS011;69628;47.516;18.828;2023-07-02T04:53:40;6.45;;;3.53;;
80313;SDS011;69628;47.516;18.828;2023-07-02T04:54:40;6.22;;;2.88;;
80313;SDS011;69628;47.516;18.828;2023-07-02T04:55:40;5.13;;;2.85;;
80313;SDS011;69628;47.516;18.828;2023-07-02T04:56:41;5.20;;;3.22;;
80313;SDS011;69628;47.516;18.828;2023-07-02T04:57:41;4.28;;;2.50;;
80313;SDS011;69628;47.516;18.828;2023-07-02T04:58:44;5.35;;;2.95;;
80313;SDS011;69628;47.516;18.828;2023-07-02T04:59:44;5.85;;;3.65;;
80313;SDS011;69628;47.516;18.828;2023-07-02T05:00:44;6.45;;;2.90;;
80313;SDS011;69628;47.516;18.828;2023-07-02T05:01:45;4.70;;;3.10;;
80313;SDS011;69628;47.516;18.828;2023-07-02T05:02:45;9.10;;;2.85;;
80313;SDS011;69628;47.516;18.828;2023-07-02T05:03:46;5.97;;;2.95;;
80313;SDS011;69628;47.516;18.828;2023-07-02T05:04:46;4.75;;;3.00;;
80313;SDS011;69628;47.516;18.828;2023-07-02T05:05:46;5.50;;;2.60;;
80313;SDS011;69628;47.516;18.828;2023-07-02T05:06:47;6.53;;;3.10;;
80313;SDS011;69628;47.516;18.828;2023-07-02T05:07:47;4.82;;;3.13;;
80313;SDS011;69628;47.516;18.828;2023-07-02T05:08:47;8.00;;;3.17;;
80313;SDS011;69628;47.516;18.828;2023-07-02T05:09:48;7.10;;;3.03;;
80313;SDS011;69628;47.516;18.828;2023-07-02T05:10:49;6.13;;;3.33;;
80313;SDS011;69628;47.516;18.828;2023-07-02T05:11:50;5.72;;;2.95;;
80313;SDS011;69628;47.516;18.828;2023-07-02T05:12:50;4.57;;;2.80;;
80313;SDS011;69628;47.516;18.828;2023-07-02T05:13:50;4.13;;;2.50;;
80313;SDS011;69628;47.516;18.828;2023-07-02T05:14:51;5.22;;;3.17;;
80313;SDS011;69628;47.516;18.828;2023-07-02T05:15:51;6.80;;;3.25;;
80313;SDS011;69628;47.516;18.828;2023-07-02T05:16:52;5.00;;;2.80;;
80313;SDS011;69628;47.516;18.828;2023-07-02T05:17:52;5.93;;;3.47;;
80313;SDS011;69628;47.516;18.828;2023-07-02T05:18:53;5.72;;;3.42;;
80313;SDS011;69628;47.516;18.828;2023-07-02T05:19:53;4.28;;;2.85;;
80313;SDS011;69628;47.516;18.828;2023-07-02T05:20:54;8.05;;;2.75;;
80313;SDS011;69628;47.516;18.828;2023-07-02T05:21:54;5.00;;;3.15;;
80313;SDS011;69628;47.516;18.828;2023-07-02T05:22:54;5.15;;;2.63;;
80313;SDS011;69628;47.516;18.828;2023-07-02T05:23:55;5.68;;;2.90;;
80313;SDS011;69628;47.516;18.828;2023-07-02T05:24:55;4.97;;;2.97;;
80313;SDS011;69628;47.516;18.828;2023-07-02T05:25:55;5.10;;;3.13;;
80313;SDS011;69628;47.516;18.828;2023-07-02T05:26:56;9.13;;;3.40;;
80313;SDS011;69628;47.516;18.828;2023-07-02T05:27:56;12.55;;;3.40;;
80313;SDS011;69628;47.516;18.828;2023-07-02T05:28:56;5.20;;;2.88;;
80313;SDS011;69628;47.516;18.828;2023-07-02T05:29:57;6.05;;;3.05;;
80313;SDS011;69628;47.516;18.828;2023-07-02T05:30:57;4.38;;;3.08;;
80313;SDS011;69628;47.516;18.828;2023-07-02T05:31:58;6.88;;;3.22;;
80313;SDS011;69628;47.516;18.828;2023-07-02T05:32:58;7.38;;;3.00;;
80313;SDS011;69628;47.516;18.828;2023-07-02T05:33:58;5.47;;;3.20;;
80313;SDS011;69628;47.516;18.828;2023-07-02T05:34:59;4.90;;;3.15;;
80313;SDS011;69628;47.516;18.828;2023-07-02T05:35:59;5.30;;;2.78;;
80313;SDS011;69628;47.516;18.828;2023-07-02T05:36:59;5.53;;;3.17;;
80313;SDS011;69628;47.516;18.828;2023-07-02T05:38:00;4.78;;;3.00;;
80313;SDS011;69628;47.516;18.828;2023-07-02T05:39:00;9.20;;;3.35;;
80313;SDS011;69628;47.516;18.828;2023-07-02T05:40:01;5.18;;;2.95;;
80313;SDS011;69628;47.516;18.828;2023-07-02T05:41:04;5.05;;;3.08;;
80313;SDS011;69628;47.516;18.828;2023-07-02T05:42:04;6.75;;;2.90;;
80313;SDS011;69628;47.516;18.828;2023-07-02T05:43:05;6.40;;;3.03;;
80313;SDS011;69628;47.516;18.828;2023-07-02T05:44:05;8.15;;;3.50;;
80313;SDS011;69628;47.516;18.828;2023-07-02T05:45:05;5.93;;;2.97;;
80313;SDS011;69628;47.516;18.828;2023-07-02T05:46:06;3.45;;;2.53;;
80313;SDS011;69628;47.516;18.828;2023-07-02T05:47:06;8.35;;;2.70;;
80313;SDS011;69628;47.516;18.828;2023-07-02T05:48:07;5.05;;;2.92;;
80313;SDS011;69628;47.516;18.828;2023-07-02T05:49:07;6.55;;;2.78;;
80313;SDS011;69628;47.516;18.828;2023-07-02T05:50:08;7.10;;;3.20;;
80313;SDS011;69628;47.516;18.828;2023-07-02T05:51:09;4.82;;;2.95;;
80313;SDS011;69628;47.516;18.828;2023-07-02T05:52:09;5.72;;;3.38;;
80313;SDS011;69628;47.516;18.828;2023-07-02T05:53:09;5.55;;;3.10;;
80313;SDS011;69628;47.516;18.828;2023-07-02T05:54:11;4.75;;;2.63;;
80313;SDS011;69628;47.516;18.828;2023-07-02T05:55:11;5.88;;;2.63;;
80313;SDS011;69628;47.516;18.828;2023-07-02T05:56:11;5.57;;;2.58;;
80313;SDS011;69628;47.516;18.828;2023-07-02T05:57:12;4.57;;;3.00;;
80313;SDS011;69628;47.516;18.828;2023-07-02T05:58:12;8.35;;;3.17;;
80313;SDS011;69628;47.516;18.828;2023-07-02T05:59:12;4.70;;;2.78;;